Time,TemperatureF,DewpointF,PressureIn,WindDirection,WindDirectionDegrees,WindSpeedMPH,WindSpeedGustMPH,Humidity,HourlyPrecipIn,Conditions,Clouds,dailyrainin,SolarRadiationWatts/m^2,SoftwareType,DateUTC
2013-11-11 00:06:00,33.6,29.0,30.23,North,351,0.0,0.0,83,0.00,,,0.00,0,weatherlink.com 1.10,2013-11-11 05:06:00,
2013-11-11 00:21:00,32.2,29.0,30.22,North,351,0.0,0.0,88,0.00,,,0.00,0,weatherlink.com 1.10,2013-11-11 05:21:00,
2013-11-11 00:36:00,31.2,28.0,30.22,North,351,0.0,0.0,88,0.00,,,0.00,0,weatherlink.com 1.10,2013-11-11 05:36:00,
2013-11-11 00:51:00,30.5,28.0,30.22,North,351,0.0,0.0,89,0.00,,,0.00,0,weatherlink.com 1.10,2013-11-11 05:51:00,
2013-11-11 01:06:00,30.2,27.0,30.22,North,351,0.0,0.0,88,0.00,,,0.00,0,weatherlink.com 1.10,2013-11-11 06:06:00,
2013-11-11 01:21:00,30.3,28.0,30.22,North,351,0.0,0.0,92,0.00,,,0.00,0,weatherlink.com 1.10,2013-11-11 06:21:00,
2013-11-11 01:36:00,29.9,28.0,30.22,North,351,0.0,0.0,91,0.00,,,0.00,0,weatherlink.com 1.10,2013-11-11 06:36:00,
2013-11-11 01:51:00,30.4,27.0,30.22,North,351,0.0,0.0,88,0.00,,,0.00,0,weatherlink.com 1.10,2013-11-11 06:51:00,
2013-11-11 02:06:00,30.7,28.0,30.22,North,351,0.0,1.0,89,0.00,,,0.00,0,weatherlink.com 1.10,2013-11-11 07:06:00,
2013-11-11 02:21:00,31.5,28.0,30.21,North,351,0.0,1.0,87,0.00,,,0.00,0,weatherlink.com 1.10,2013-11-11 07:21:00,
2013-11-11 02:36:00,31.0,28.0,30.21,North,351,0.0,0.0,87,0.00,,,0.00,0,weatherlink.com 1.10,2013-11-11 07:36:00,
2013-11-11 02:51:00,30.7,27.0,30.20,North,351,0.0,0.0,87,0.00,,,0.00,0,weatherlink.com 1.10,2013-11-11 07:51:00,
2013-11-11 03:06:00,30.3,28.0,30.21,North,351,0.0,0.0,90,0.00,,,0.00,0,weatherlink.com 1.10,2013-11-11 08:06:00,
2013-11-11 03:21:00,29.7,27.0,30.21,North,351,0.0,0.0,90,0.00,,,0.00,0,weatherlink.com 1.10,2013-11-11 08:21:00,
2013-11-11 03:36:00,29.2,27.0,30.21,North,351,0.0,0.0,91,0.00,,,0.00,0,weatherlink.com 1.10,2013-11-11 08:36:00,
2013-11-11 03:51:00,28.8,27.0,30.21,North,351,0.0,0.0,92,0.00,,,0.00,0,weatherlink.com 1.10,2013-11-11 08:51:00,
2013-11-11 04:06:00,28.8,27.0,30.21,North,351,0.0,0.0,93,0.00,,,0.00,0,weatherlink.com 1.10,2013-11-11 09:06:00,
2013-11-11 04:21:00,28.4,27.0,30.21,North,351,0.0,0.0,93,0.00,,,0.00,0,weatherlink.com 1.10,2013-11-11 09:21:00,
2013-11-11 04:36:00,28.3,27.0,30.21,North,351,0.0,0.0,93,0.00,,,0.00,0,weatherlink.com 1.10,2013-11-11 09:36:00,
2013-11-11 04:51:00,28.1,27.0,30.22,North,351,0.0,0.0,94,0.00,,,0.00,0,weatherlink.com 1.10,2013-11-11 09:51:00,
2013-11-11 05:06:00,28.2,27.0,30.22,North,351,0.0,0.0,95,0.00,,,0.00,0,weatherlink.com 1.10,2013-11-11 10:06:00,
2013-11-11 05:21:00,28.3,27.0,30.22,North,351,1.0,1.0,95,0.00,,,0.00,0,weatherlink.com 1.10,2013-11-11 10:21:00,
2013-11-11 05:36:00,29.0,28.0,30.21,North,351,0.0,0.0,94,0.00,,,0.00,0,weatherlink.com 1.10,2013-11-11 10:36:00,
2013-11-11 05:51:00,29.6,28.0,30.21,North,351,0.0,1.0,93,0.00,,,0.00,0,weatherlink.com 1.10,2013-11-11 10:51:00,
2013-11-11 06:06:00,29.6,27.0,30.21,North,351,0.0,0.0,91,0.00,,,0.00,0,weatherlink.com 1.10,2013-11-11 11:06:00,
2013-11-11 06:21:00,29.6,27.0,30.21,North,351,0.0,0.0,91,0.00,,,0.00,0,weatherlink.com 1.10,2013-11-11 11:21:00,
2013-11-11 06:36:00,29.8,27.0,30.21,North,351,0.0,0.0,90,0.00,,,0.00,0,weatherlink.com 1.10,2013-11-11 11:36:00,
2013-11-11 06:51:00,30.0,27.0,30.21,North,351,0.0,0.0,89,0.00,,,0.00,0,weatherlink.com 1.10,2013-11-11 11:51:00,
2013-11-11 07:06:00,29.4,27.0,30.22,North,351,0.0,0.0,91,0.00,,,0.00,0,weatherlink.com 1.10,2013-11-11 12:06:00,
2013-11-11 07:21:00,29.0,27.0,30.22,North,351,0.0,0.0,93,0.00,,,0.00,5,weatherlink.com 1.10,2013-11-11 12:21:00,
2013-11-11 07:36:00,28.9,27.0,30.22,North,351,0.0,1.0,93,0.00,,,0.00,11,weatherlink.com 1.10,2013-11-11 12:36:00,
2013-11-11 07:51:00,29.4,27.0,30.23,North,351,0.0,0.0,92,0.00,,,0.00,12,weatherlink.com 1.10,2013-11-11 12:51:00,
2013-11-11 08:06:00,29.7,28.0,30.23,North,351,0.0,0.0,94,0.00,,,0.00,16,weatherlink.com 1.10,2013-11-11 13:06:00,
2013-11-11 08:21:00,30.6,29.0,30.23,North,351,0.0,0.0,92,0.00,,,0.00,35,weatherlink.com 1.10,2013-11-11 13:21:00,
2013-11-11 08:36:00,31.8,30.0,30.23,North,351,0.0,0.0,92,0.00,,,0.00,86,weatherlink.com 1.10,2013-11-11 13:36:00,
2013-11-11 08:51:00,34.1,32.0,30.24,North,351,0.0,0.0,92,0.00,,,0.00,46,weatherlink.com 1.10,2013-11-11 13:51:00,
2013-11-11 09:07:00,36.7,34.0,30.23,North,351,0.0,0.0,90,0.00,,,0.00,118,weatherlink.com 1.10,2013-11-11 14:07:00,
2013-11-11 09:22:00,39.6,35.0,30.23,North,355,0.0,1.0,84,0.00,,,0.00,74,weatherlink.com 1.10,2013-11-11 14:22:00,
2013-11-11 09:37:00,42.1,34.0,30.23,WNW,288,0.0,2.0,74,0.00,,,0.00,70,weatherlink.com 1.10,2013-11-11 14:37:00,
2013-11-11 09:52:00,44.6,33.0,30.23,SW,218,2.0,2.0,65,0.00,,,0.00,56,weatherlink.com 1.10,2013-11-11 14:52:00,
2013-11-11 10:07:00,46.6,34.0,30.22,WSW,257,0.0,3.0,61,0.00,,,0.00,105,weatherlink.com 1.10,2013-11-11 15:07:00,
2013-11-11 10:22:00,48.7,33.0,30.22,SSW,205,2.0,3.0,55,0.00,,,0.00,443,weatherlink.com 1.10,2013-11-11 15:22:00,
2013-11-11 10:37:00,51.8,36.0,30.22,WSW,241,3.0,3.0,56,0.00,,,0.00,517,weatherlink.com 1.10,2013-11-11 15:37:00,
2013-11-11 10:52:00,53.5,30.0,30.21,WSW,239,5.0,8.0,41,0.00,,,0.00,485,weatherlink.com 1.10,2013-11-11 15:52:00,
2013-11-11 11:07:00,54.3,32.0,30.21,SSW,209,0.0,8.0,43,0.00,,,0.00,508,weatherlink.com 1.10,2013-11-11 16:07:00,
2013-11-11 11:22:00,55.8,28.0,30.20,WSW,239,3.0,8.0,34,0.00,,,0.00,527,weatherlink.com 1.10,2013-11-11 16:22:00,
2013-11-11 11:37:00,56.4,29.0,30.20,West,265,3.0,6.0,35,0.00,,,0.00,541,weatherlink.com 1.10,2013-11-11 16:37:00,
2013-11-11 11:52:00,57.8,31.0,30.19,SW,215,1.0,4.0,36,0.00,,,0.00,555,weatherlink.com 1.10,2013-11-11 16:52:00,
2013-11-11 12:07:00,58.3,27.0,30.18,West,271,4.0,8.0,30,0.00,,,0.00,563,weatherlink.com 1.10,2013-11-11 17:07:00,
2013-11-11 12:22:00,59.3,28.0,30.17,West,263,1.0,7.0,31,0.00,,,0.00,570,weatherlink.com 1.10,2013-11-11 17:22:00,
2013-11-11 12:37:00,60.4,26.0,30.16,WSW,256,0.0,5.0,27,0.00,,,0.00,571,weatherlink.com 1.10,2013-11-11 17:37:00,
2013-11-11 12:53:00,61.0,27.0,30.15,SW,224,4.0,6.0,28,0.00,,,0.00,570,weatherlink.com 1.10,2013-11-11 17:53:00,
2013-11-11 13:08:00,61.5,26.0,30.14,West,278,3.0,6.0,26,0.00,,,0.00,564,weatherlink.com 1.10,2013-11-11 18:08:00,
2013-11-11 13:23:00,62.4,24.0,30.13,West,277,2.0,8.0,23,0.00,,,0.00,552,weatherlink.com 1.10,2013-11-11 18:23:00,
2013-11-11 13:38:00,62.7,25.0,30.12,WNW,285,2.0,9.0,24,0.00,,,0.00,540,weatherlink.com 1.10,2013-11-11 18:38:00,
2013-11-11 13:53:00,63.8,22.0,30.12,West,274,2.0,8.0,20,0.00,,,0.00,524,weatherlink.com 1.10,2013-11-11 18:53:00,
2013-11-11 14:08:00,65.7,21.0,30.11,WSW,253,6.0,8.0,18,0.00,,,0.00,504,weatherlink.com 1.10,2013-11-11 19:08:00,
2013-11-11 14:23:00,64.8,28.0,30.11,WSW,240,3.0,6.0,25,0.00,,,0.00,482,weatherlink.com 1.10,2013-11-11 19:23:00,
2013-11-11 14:38:00,64.9,28.0,30.10,SW,230,1.0,8.0,25,0.00,,,0.00,454,weatherlink.com 1.10,2013-11-11 19:38:00,
2013-11-11 14:53:00,65.2,23.0,30.10,WSW,241,5.0,8.0,20,0.00,,,0.00,425,weatherlink.com 1.10,2013-11-11 19:53:00,
2013-11-11 15:08:00,64.8,24.0,30.09,WSW,250,5.0,9.0,21,0.00,,,0.00,392,weatherlink.com 1.10,2013-11-11 20:08:00,
2013-11-11 15:23:00,65.0,25.0,30.08,West,262,4.0,7.0,22,0.00,,,0.00,357,weatherlink.com 1.10,2013-11-11 20:23:00,
2013-11-11 15:38:00,65.9,24.0,30.08,WSW,242,3.0,6.0,20,0.00,,,0.00,322,weatherlink.com 1.10,2013-11-11 20:38:00,
2013-11-11 15:53:00,66.5,28.0,30.08,SW,219,1.0,5.0,24,0.00,,,0.00,278,weatherlink.com 1.10,2013-11-11 20:53:00,
2013-11-11 16:08:00,66.3,28.0,30.07,South,186,1.0,5.0,24,0.00,,,0.00,229,weatherlink.com 1.10,2013-11-11 21:08:00,
2013-11-11 16:23:00,65.2,28.0,30.07,SW,229,3.0,5.0,25,0.00,,,0.00,172,weatherlink.com 1.10,2013-11-11 21:23:00,
2013-11-11 16:38:00,64.5,26.0,30.08,West,261,3.0,6.0,23,0.00,,,0.00,118,weatherlink.com 1.10,2013-11-11 21:38:00,
2013-11-11 16:53:00,63.1,25.0,30.08,WNW,283,3.0,6.0,23,0.00,,,0.00,74,weatherlink.com 1.10,2013-11-11 21:53:00,
2013-11-11 17:08:00,62.4,23.0,30.07,West,269,4.0,6.0,22,0.00,,,0.00,21,weatherlink.com 1.10,2013-11-11 22:08:00,
2013-11-11 17:23:00,60.4,24.0,30.08,West,261,1.0,3.0,25,0.00,,,0.00,12,weatherlink.com 1.10,2013-11-11 22:23:00,
2013-11-11 17:38:00,59.7,22.0,30.08,West,268,3.0,3.0,23,0.00,,,0.00,0,weatherlink.com 1.10,2013-11-11 22:38:00,
2013-11-11 17:53:00,59.4,23.0,30.08,West,268,0.0,1.0,25,0.00,,,0.00,0,weatherlink.com 1.10,2013-11-11 22:53:00,
2013-11-11 18:08:00,58.4,24.0,30.08,West,268,0.0,0.0,27,0.00,,,0.00,0,weatherlink.com 1.10,2013-11-11 23:08:00,
2013-11-11 18:23:00,57.2,24.0,30.08,West,268,0.0,1.0,28,0.00,,,0.00,0,weatherlink.com 1.10,2013-11-11 23:23:00,
2013-11-11 18:38:00,57.1,27.0,30.08,West,268,0.0,0.0,31,0.00,,,0.00,0,weatherlink.com 1.10,2013-11-11 23:38:00,
2013-11-11 18:53:00,56.0,25.0,30.09,West,268,0.0,0.0,30,0.00,,,0.00,0,weatherlink.com 1.10,2013-11-11 23:53:00,
2013-11-11 19:08:00,55.4,25.0,30.09,West,268,0.0,0.0,31,0.00,,,0.00,0,weatherlink.com 1.10,2013-11-12 00:08:00,
2013-11-11 19:23:00,54.6,25.0,30.09,West,268,0.0,0.0,32,0.00,,,0.00,0,weatherlink.com 1.10,2013-11-12 00:23:00,
2013-11-11 19:38:00,53.9,25.0,30.08,West,268,0.0,0.0,33,0.00,,,0.00,0,weatherlink.com 1.10,2013-11-12 00:38:00,
2013-11-11 20:08:00,53.4,25.0,30.08,West,268,0.0,0.0,33,0.00,,,0.00,0,weatherlink.com 1.10,2013-11-12 01:08:00,
2013-11-11 20:23:00,53.5,28.0,30.08,West,268,0.0,0.0,37,0.00,,,0.00,0,weatherlink.com 1.10,2013-11-12 01:23:00,
2013-11-11 20:38:00,53.0,29.0,30.08,West,268,0.0,0.0,40,0.00,,,0.00,0,weatherlink.com 1.10,2013-11-12 01:38:00,
2013-11-11 20:53:00,52.3,28.0,30.08,West,268,0.0,0.0,40,0.00,,,0.00,0,weatherlink.com 1.10,2013-11-12 01:53:00,
2013-11-11 21:08:00,52.0,29.0,30.08,West,268,0.0,0.0,41,0.00,,,0.00,0,weatherlink.com 1.10,2013-11-12 02:08:00,
2013-11-11 21:23:00,51.9,33.0,30.08,WSW,242,0.0,1.0,48,0.00,,,0.00,0,weatherlink.com 1.10,2013-11-12 02:23:00,
2013-11-11 21:38:00,52.1,26.0,30.08,WSW,242,0.0,0.0,37,0.00,,,0.00,0,weatherlink.com 1.10,2013-11-12 02:38:00,
2013-11-11 21:53:00,53.2,29.0,30.09,WSW,242,0.0,2.0,39,0.00,,,0.00,0,weatherlink.com 1.10,2013-11-12 02:53:00,
2013-11-11 22:08:00,53.6,32.0,30.09,WSW,242,0.0,0.0,44,0.00,,,0.00,0,weatherlink.com 1.10,2013-11-12 03:08:00,
2013-11-11 22:23:00,53.1,27.0,30.09,WSW,242,0.0,0.0,37,0.00,,,0.00,0,weatherlink.com 1.10,2013-11-12 03:23:00,
2013-11-11 22:38:00,52.6,28.0,30.09,WSW,242,0.0,0.0,39,0.00,,,0.00,0,weatherlink.com 1.10,2013-11-12 03:38:00,
2013-11-11 22:53:00,52.0,28.0,30.09,WSW,242,0.0,0.0,40,0.00,,,0.00,0,weatherlink.com 1.10,2013-11-12 03:53:00,
2013-11-11 23:08:00,51.5,29.0,30.09,WSW,242,0.0,0.0,43,0.00,,,0.00,0,weatherlink.com 1.10,2013-11-12 04:08:00,
2013-11-11 23:23:00,50.7,28.0,30.09,West,273,1.0,2.0,41,0.00,,,0.00,0,weatherlink.com 1.10,2013-11-12 04:23:00,
2013-11-11 23:38:00,52.4,32.0,30.09,West,273,0.0,0.0,47,0.00,,,0.00,0,weatherlink.com 1.10,2013-11-12 04:38:00,
2013-11-11 23:53:00,51.2,31.0,30.09,West,273,0.0,0.0,47,0.00,,,0.00,0,weatherlink.com 1.10,2013-11-12 04:53:00,